sensor_id;sensor_type;location;lat;lon;timestamp;P1;durP1;ratioP1;P2;durP2;ratioP2
44564;SDS011;30275;51.822;-0.326;2023-02-28T00:00:35;9.90;;;5.20;;
44564;SDS011;30275;51.822;-0.326;2023-02-28T00:03:02;13.68;;;5.82;;
44564;SDS011;30275;51.822;-0.326;2023-02-28T00:05:28;12.07;;;5.28;;
44564;SDS011;30275;51.822;-0.326;2023-02-28T00:07:54;7.97;;;4.90;;
44564;SDS011;30275;51.822;-0.326;2023-02-28T00:10:21;12.38;;;5.85;;
44564;SDS011;30275;51.822;-0.326;2023-02-28T00:12:52;15.18;;;5.95;;
44564;SDS011;30275;51.822;-0.326;2023-02-28T00:15:22;14.60;;;5.78;;
44564;SDS011;30275;51.822;-0.326;2023-02-28T00:17:48;14.50;;;5.72;;
44564;SDS011;30275;51.822;-0.326;2023-02-28T00:20:14;11.05;;;5.30;;
44564;SDS011;30275;51.822;-0.326;2023-02-28T00:22:44;9.63;;;5.38;;
44564;SDS011;30275;51.822;-0.326;2023-02-28T00:25:12;11.20;;;5.22;;
44564;SDS011;30275;51.822;-0.326;2023-02-28T00:27:39;10.35;;;5.68;;
44564;SDS011;30275;51.822;-0.326;2023-02-28T00:30:06;14.43;;;5.88;;
44564;SDS011;30275;51.822;-0.326;2023-02-28T00:32:35;12.40;;;5.65;;
44564;SDS011;30275;51.822;-0.326;2023-02-28T00:35:01;13.43;;;6.10;;
44564;SDS011;30275;51.822;-0.326;2023-02-28T00:37:27;17.13;;;6.82;;
44564;SDS011;30275;51.822;-0.326;2023-02-28T00:39:53;11.55;;;7.53;;
44564;SDS011;30275;51.822;-0.326;2023-02-28T00:42:21;15.10;;;7.03;;
44564;SDS011;30275;51.822;-0.326;2023-02-28T00:44:51;16.67;;;8.52;;
44564;SDS011;30275;51.822;-0.326;2023-02-28T00:47:17;16.58;;;8.55;;
44564;SDS011;30275;51.822;-0.326;2023-02-28T00:49:43;17.23;;;7.75;;
44564;SDS011;30275;51.822;-0.326;2023-02-28T00:52:09;16.30;;;7.80;;
44564;SDS011;30275;51.822;-0.326;2023-02-28T00:54:35;16.90;;;7.38;;
44564;SDS011;30275;51.822;-0.326;2023-02-28T00:57:00;13.75;;;7.90;;
44564;SDS011;30275;51.822;-0.326;2023-02-28T00:59:26;15.98;;;8.07;;
44564;SDS011;30275;51.822;-0.326;2023-02-28T01:01:52;14.90;;;7.25;;
44564;SDS011;30275;51.822;-0.326;2023-02-28T01:04:17;15.25;;;7.85;;
44564;SDS011;30275;51.822;-0.326;2023-02-28T01:06:43;18.25;;;7.05;;
44564;SDS011;30275;51.822;-0.326;2023-02-28T01:09:09;16.70;;;6.97;;
44564;SDS011;30275;51.822;-0.326;2023-02-28T01:11:35;16.17;;;7.80;;
44564;SDS011;30275;51.822;-0.326;2023-02-28T01:14:01;13.20;;;7.20;;
44564;SDS011;30275;51.822;-0.326;2023-02-28T01:16:28;18.75;;;8.10;;
44564;SDS011;30275;51.822;-0.326;2023-02-28T01:18:54;17.52;;;6.80;;
44564;SDS011;30275;51.822;-0.326;2023-02-28T01:21:21;12.38;;;6.47;;
44564;SDS011;30275;51.822;-0.326;2023-02-28T01:23:47;13.50;;;6.60;;
44564;SDS011;30275;51.822;-0.326;2023-02-28T01:26:14;17.75;;;6.82;;
44564;SDS011;30275;51.822;-0.326;2023-02-28T01:28:41;18.52;;;7.30;;
44564;SDS011;30275;51.822;-0.326;2023-02-28T01:31:07;15.75;;;7.35;;
44564;SDS011;30275;51.822;-0.326;2023-02-28T01:33:33;15.10;;;7.53;;
44564;SDS011;30275;51.822;-0.326;2023-02-28T01:36:04;17.05;;;7.53;;
44564;SDS011;30275;51.822;-0.326;2023-02-28T01:38:32;16.05;;;8.50;;
44564;SDS011;30275;51.822;-0.326;2023-02-28T01:40:58;17.15;;;8.23;;
44564;SDS011;30275;51.822;-0.326;2023-02-28T01:43:28;18.17;;;8.27;;
44564;SDS011;30275;51.822;-0.326;2023-02-28T01:45:56;14.32;;;6.82;;
44564;SDS011;30275;51.822;-0.326;2023-02-28T01:48:30;12.07;;;7.35;;
44564;SDS011;30275;51.822;-0.326;2023-02-28T01:50:59;10.93;;;6.63;;
44564;SDS011;30275;51.822;-0.326;2023-02-28T01:53:36;15.20;;;7.70;;
44564;SDS011;30275;51.822;-0.326;2023-02-28T01:56:07;16.67;;;7.28;;
44564;SDS011;30275;51.822;-0.326;2023-02-28T01:58:35;15.00;;;7.65;;
44564;SDS011;30275;51.822;-0.326;2023-02-28T02:01:02;17.50;;;7.63;;
44564;SDS011;30275;51.822;-0.326;2023-02-28T02:03:27;14.25;;;6.95;;
44564;SDS011;30275;51.822;-0.326;2023-02-28T02:05:55;14.25;;;8.90;;
44564;SDS011;30275;51.822;-0.326;2023-02-28T02:08:24;17.17;;;7.93;;
44564;SDS011;30275;51.822;-0.326;2023-02-28T02:14:03;20.88;;;9.02;;
44564;SDS011;30275;51.822;-0.326;2023-02-28T02:16:45;14.27;;;7.20;;
44564;SDS011;30275;51.822;-0.326;2023-02-28T02:27:25;15.68;;;7.35;;
44564;SDS011;30275;51.822;-0.326;2023-02-28T02:30:07;15.80;;;6.90;;
44564;SDS011;30275;51.822;-0.326;2023-02-28T02:38:18;13.20;;;6.93;;
44564;SDS011;30275;51.822;-0.326;2023-02-28T02:44:20;11.48;;;6.45;;
44564;SDS011;30275;51.822;-0.326;2023-02-28T02:46:47;11.70;;;6.72;;
44564;SDS011;30275;51.822;-0.326;2023-02-28T02:49:25;12.70;;;7.07;;
44564;SDS011;30275;51.822;-0.326;2023-02-28T02:51:54;13.02;;;6.10;;
44564;SDS011;30275;51.822;-0.326;2023-02-28T02:54:23;12.07;;;4.97;;
44564;SDS011;30275;51.822;-0.326;2023-02-28T02:56:53;10.88;;;5.07;;
44564;SDS011;30275;51.822;-0.326;2023-02-28T02:59:22;14.43;;;5.72;;
44564;SDS011;30275;51.822;-0.326;2023-02-28T03:01:50;12.48;;;5.05;;
44564;SDS011;30275;51.822;-0.326;2023-02-28T03:04:20;9.35;;;5.80;;
44564;SDS011;30275;51.822;-0.326;2023-02-28T03:06:47;11.50;;;6.00;;
44564;SDS011;30275;51.822;-0.326;2023-02-28T03:09:15;14.13;;;6.63;;
44564;SDS011;30275;51.822;-0.326;2023-02-28T03:11:40;12.15;;;5.78;;
44564;SDS011;30275;51.822;-0.326;2023-02-28T03:25:04;9.10;;;4.32;;
44564;SDS011;30275;51.822;-0.326;2023-02-28T03:32:57;6.82;;;4.20;;
44564;SDS011;30275;51.822;-0.326;2023-02-28T03:35:37;6.88;;;3.83;;
44564;SDS011;30275;51.822;-0.326;2023-02-28T03:38:08;8.13;;;4.90;;
44564;SDS011;30275;51.822;-0.326;2023-02-28T03:41:05;7.15;;;4.07;;
44564;SDS011;30275;51.822;-0.326;2023-02-28T03:43:38;11.30;;;4.65;;
44564;SDS011;30275;51.822;-0.326;2023-02-28T03:46:08;8.73;;;5.15;;
44564;SDS011;30275;51.822;-0.326;2023-02-28T03:51:09;8.25;;;4.97;;
44564;SDS011;30275;51.822;-0.326;2023-02-28T03:53:42;11.52;;;6.18;;
44564;SDS011;30275;51.822;-0.326;2023-02-28T03:56:16;10.95;;;6.80;;
44564;SDS011;30275;51.822;-0.326;2023-02-28T03:58:51;15.52;;;8.18;;
44564;SDS011;30275;51.822;-0.326;2023-02-28T04:01:23;18.05;;;8.68;;
44564;SDS011;30275;51.822;-0.326;2023-02-28T04:03:51;15.95;;;8.90;;
44564;SDS011;30275;51.822;-0.326;2023-02-28T04:06:18;17.67;;;8.95;;
44564;SDS011;30275;51.822;-0.326;2023-02-28T04:08:46;16.65;;;9.32;;
44564;SDS011;30275;51.822;-0.326;2023-02-28T04:11:29;20.23;;;10.90;;
44564;SDS011;30275;51.822;-0.326;2023-02-28T04:13:56;17.98;;;10.20;;
44564;SDS011;30275;51.822;-0.326;2023-02-28T04:16:22;27.33;;;10.52;;
44564;SDS011;30275;51.822;-0.326;2023-02-28T04:18:47;21.90;;;10.05;;
44564;SDS011;30275;51.822;-0.326;2023-02-28T04:21:13;22.40;;;10.70;;
44564;SDS011;30275;51.822;-0.326;2023-02-28T04:23:39;19.45;;;9.52;;
44564;SDS011;30275;51.822;-0.326;2023-02-28T04:26:05;23.08;;;9.45;;
44564;SDS011;30275;51.822;-0.326;2023-02-28T04:28:31;34.03;;;9.30;;
44564;SDS011;30275;51.822;-0.326;2023-02-28T04:30:59;27.02;;;9.38;;
44564;SDS011;30275;51.822;-0.326;2023-02-28T04:33:26;17.88;;;8.85;;
44564;SDS011;30275;51.822;-0.326;2023-02-28T04:35:59;21.15;;;9.60;;
44564;SDS011;30275;51.822;-0.326;2023-02-28T04:38:33;16.10;;;8.48;;
44564;SDS011;30275;51.822;-0.326;2023-02-28T04:41:00;16.70;;;8.93;;
44564;SDS011;30275;51.822;-0.326;2023-02-28T04:43:26;16.73;;;8.93;;
44564;SDS011;30275;51.822;-0.326;2023-02-28T04:45:53;15.60;;;8.05;;
44564;SDS011;30275;51.822;-0.326;2023-02-28T04:48:22;22.80;;;7.70;;
44564;SDS011;30275;51.822;-0.326;2023-02-28T04:50:52;31.10;;;8.48;;
44564;SDS011;30275;51.822;-0.326;2023-02-28T04:53:18;27.25;;;9.02;;
44564;SDS011;30275;51.822;-0.326;2023-02-28T04:55:44;20.92;;;7.70;;
44564;SDS011;30275;51.822;-0.326;2023-02-28T04:58:10;13.32;;;6.80;;
44564;SDS011;30275;51.822;-0.326;2023-02-28T05:00:36;21.08;;;6.78;;
44564;SDS011;30275;51.822;-0.326;2023-02-28T05:03:02;15.68;;;7.22;;
44564;SDS011;30275;51.822;-0.326;2023-02-28T05:05:28;13.07;;;7.03;;
44564;SDS011;30275;51.822;-0.326;2023-02-28T05:07:54;12.85;;;7.15;;
44564;SDS011;30275;51.822;-0.326;2023-02-28T05:10:20;14.35;;;7.75;;
44564;SDS011;30275;51.822;-0.326;2023-02-28T05:12:47;15.13;;;8.10;;
44564;SDS011;30275;51.822;-0.326;2023-02-28T05:15:14;14.60;;;8.25;;
44564;SDS011;30275;51.822;-0.326;2023-02-28T05:17:40;15.48;;;8.38;;
44564;SDS011;30275;51.822;-0.326;2023-02-28T05:20:07;16.08;;;8.77;;
44564;SDS011;30275;51.822;-0.326;2023-02-28T05:22:35;16.27;;;8.25;;
44564;SDS011;30275;51.822;-0.326;2023-02-28T05:25:02;14.07;;;6.88;;
44564;SDS011;30275;51.822;-0.326;2023-02-28T05:27:29;14.00;;;7.97;;
44564;SDS011;30275;51.822;-0.326;2023-02-28T05:29:56;15.20;;;7.95;;
44564;SDS011;30275;51.822;-0.326;2023-02-28T05:32:22;17.13;;;9.20;;
44564;SDS011;30275;51.822;-0.326;2023-02-28T05:34:47;14.68;;;8.73;;
44564;SDS011;30275;51.822;-0.326;2023-02-28T05:37:14;13.27;;;7.43;;
44564;SDS011;30275;51.822;-0.326;2023-02-28T05:39:40;15.35;;;8.02;;
44564;SDS011;30275;51.822;-0.326;2023-02-28T05:42:07;21.00;;;8.85;;
44564;SDS011;30275;51.822;-0.326;2023-02-28T05:44:34;15.60;;;7.80;;
44564;SDS011;30275;51.822;-0.326;2023-02-28T05:47:00;17.90;;;8.52;;
44564;SDS011;30275;51.822;-0.326;2023-02-28T05:49:26;14.55;;;8.07;;
44564;SDS011;30275;51.822;-0.326;2023-02-28T05:51:51;15.68;;;8.85;;
44564;SDS011;30275;51.822;-0.326;2023-02-28T05:54:17;18.25;;;7.47;;
44564;SDS011;30275;51.822;-0.326;2023-02-28T05:56:42;12.63;;;7.15;;
44564;SDS011;30275;51.822;-0.326;2023-02-28T05:59:10;12.27;;;6.72;;
44564;SDS011;30275;51.822;-0.326;2023-02-28T06:01:40;16.15;;;7.47;;
44564;SDS011;30275;51.822;-0.326;2023-02-28T06:04:13;15.15;;;7.82;;
44564;SDS011;30275;51.822;-0.326;2023-02-28T06:06:43;14.40;;;7.93;;
44564;SDS011;30275;51.822;-0.326;2023-02-28T06:09:09;14.63;;;7.38;;
44564;SDS011;30275;51.822;-0.326;2023-02-28T06:11:35;13.32;;;7.50;;
44564;SDS011;30275;51.822;-0.326;2023-02-28T06:14:01;13.48;;;7.50;;
44564;SDS011;30275;51.822;-0.326;2023-02-28T06:16:28;12.93;;;7.55;;
44564;SDS011;30275;51.822;-0.326;2023-02-28T06:18:56;16.65;;;8.27;;
44564;SDS011;30275;51.822;-0.326;2023-02-28T06:21:23;14.88;;;6.57;;
44564;SDS011;30275;51.822;-0.326;2023-02-28T06:23:49;13.10;;;6.97;;
44564;SDS011;30275;51.822;-0.326;2023-02-28T06:26:14;12.32;;;7.53;;
44564;SDS011;30275;51.822;-0.326;2023-02-28T06:28:40;14.52;;;7.82;;
44564;SDS011;30275;51.822;-0.326;2023-02-28T06:31:07;15.35;;;7.22;;
44564;SDS011;30275;51.822;-0.326;2023-02-28T06:33:38;13.90;;;7.15;;
44564;SDS011;30275;51.822;-0.326;2023-02-28T06:36:05;14.25;;;7.20;;
44564;SDS011;30275;51.822;-0.326;2023-02-28T06:38:32;17.88;;;8.00;;
44564;SDS011;30275;51.822;-0.326;2023-02-28T06:40:58;14.85;;;7.82;;
44564;SDS011;30275;51.822;-0.326;2023-02-28T06:43:25;18.23;;;8.27;;
44564;SDS011;30275;51.822;-0.326;2023-02-28T06:45:55;17.17;;;8.40;;
44564;SDS011;30275;51.822;-0.326;2023-02-28T06:48:23;17.48;;;8.27;;
44564;SDS011;30275;51.822;-0.326;2023-02-28T06:50:50;16.00;;;7.95;;
44564;SDS011;30275;51.822;-0.326;2023-02-28T06:53:16;15.98;;;7.57;;
44564;SDS011;30275;51.822;-0.326;2023-02-28T06:55:41;16.20;;;7.88;;
44564;SDS011;30275;51.822;-0.326;2023-02-28T06:58:07;12.77;;;6.72;;
44564;SDS011;30275;51.822;-0.326;2023-02-28T07:00:40;13.27;;;6.72;;
44564;SDS011;30275;51.822;-0.326;2023-02-28T07:03:07;17.50;;;8.13;;
44564;SDS011;30275;51.822;-0.326;2023-02-28T07:05:34;13.65;;;7.40;;
44564;SDS011;30275;51.822;-0.326;2023-02-28T07:08:01;13.93;;;7.35;;
44564;SDS011;30275;51.822;-0.326;2023-02-28T07:10:28;17.27;;;8.63;;
44564;SDS011;30275;51.822;-0.326;2023-02-28T07:12:54;23.95;;;9.65;;
44564;SDS011;30275;51.822;-0.326;2023-02-28T07:15:19;19.33;;;8.93;;
44564;SDS011;30275;51.822;-0.326;2023-02-28T07:17:45;16.55;;;8.43;;
44564;SDS011;30275;51.822;-0.326;2023-02-28T07:20:11;18.05;;;8.80;;
44564;SDS011;30275;51.822;-0.326;2023-02-28T07:22:37;17.95;;;9.75;;
44564;SDS011;30275;51.822;-0.326;2023-02-28T07:25:04;16.80;;;8.52;;
44564;SDS011;30275;51.822;-0.326;2023-02-28T07:27:30;21.02;;;9.10;;
44564;SDS011;30275;51.822;-0.326;2023-02-28T07:29:55;20.27;;;9.00;;
44564;SDS011;30275;51.822;-0.326;2023-02-28T07:32:21;16.25;;;7.93;;
44564;SDS011;30275;51.822;-0.326;2023-02-28T07:34:47;17.08;;;7.72;;
44564;SDS011;30275;51.822;-0.326;2023-02-28T07:37:13;14.55;;;7.22;;
44564;SDS011;30275;51.822;-0.326;2023-02-28T07:39:39;16.17;;;7.57;;
44564;SDS011;30275;51.822;-0.326;2023-02-28T07:42:08;12.93;;;7.72;;
44564;SDS011;30275;51.822;-0.326;2023-02-28T07:44:36;14.52;;;6.68;;
44564;SDS011;30275;51.822;-0.326;2023-02-28T07:47:06;12.82;;;6.47;;
44564;SDS011;30275;51.822;-0.326;2023-02-28T07:49:32;8.98;;;5.15;;
44564;SDS011;30275;51.822;-0.326;2023-02-28T07:51:59;12.13;;;6.20;;
44564;SDS011;30275;51.822;-0.326;2023-02-28T07:54:24;13.73;;;7.03;;
44564;SDS011;30275;51.822;-0.326;2023-02-28T07:56:50;10.70;;;5.53;;
44564;SDS011;30275;51.822;-0.326;2023-02-28T07:59:16;10.57;;;5.57;;
44564;SDS011;30275;51.822;-0.326;2023-02-28T08:01:41;8.80;;;4.57;;
44564;SDS011;30275;51.822;-0.326;2023-02-28T08:04:09;7.57;;;4.07;;
44564;SDS011;30275;51.822;-0.326;2023-02-28T08:06:35;9.82;;;4.68;;
44564;SDS011;30275;51.822;-0.326;2023-02-28T08:09:00;7.57;;;4.57;;
44564;SDS011;30275;51.822;-0.326;2023-02-28T08:11:26;6.90;;;3.58;;
44564;SDS011;30275;51.822;-0.326;2023-02-28T08:13:51;5.68;;;3.00;;
44564;SDS011;30275;51.822;-0.326;2023-02-28T08:16:17;5.72;;;3.00;;
44564;SDS011;30275;51.822;-0.326;2023-02-28T08:18:47;4.95;;;3.00;;
44564;SDS011;30275;51.822;-0.326;2023-02-28T08:21:13;3.92;;;2.20;;
44564;SDS011;30275;51.822;-0.326;2023-02-28T08:23:39;5.78;;;3.10;;
44564;SDS011;30275;51.822;-0.326;2023-02-28T08:26:05;3.17;;;2.13;;
44564;SDS011;30275;51.822;-0.326;2023-02-28T08:28:31;3.97;;;2.20;;
44564;SDS011;30275;51.822;-0.326;2023-02-28T08:30:56;3.15;;;2.25;;
44564;SDS011;30275;51.822;-0.326;2023-02-28T08:33:22;3.35;;;1.80;;
44564;SDS011;30275;51.822;-0.326;2023-02-28T08:35:51;2.97;;;1.88;;
44564;SDS011;30275;51.822;-0.326;2023-02-28T08:38:21;3.72;;;1.70;;
44564;SDS011;30275;51.822;-0.326;2023-02-28T08:40:47;2.05;;;1.85;;
44564;SDS011;30275;51.822;-0.326;2023-02-28T08:43:12;2.33;;;1.83;;
44564;SDS011;30275;51.822;-0.326;2023-02-28T08:45:38;2.97;;;2.05;;
44564;SDS011;30275;51.822;-0.326;2023-02-28T08:48:04;5.05;;;2.47;;
44564;SDS011;30275;51.822;-0.326;2023-02-28T08:50:29;2.67;;;1.92;;
44564;SDS011;30275;51.822;-0.326;2023-02-28T08:52:55;3.53;;;2.47;;
44564;SDS011;30275;51.822;-0.326;2023-02-28T08:55:21;3.03;;;2.28;;
44564;SDS011;30275;51.822;-0.326;2023-02-28T08:57:46;3.00;;;2.08;;
44564;SDS011;30275;51.822;-0.326;2023-02-28T09:00:12;2.55;;;2.10;;
44564;SDS011;30275;51.822;-0.326;2023-02-28T09:02:38;4.13;;;2.65;;
44564;SDS011;30275;51.822;-0.326;2023-02-28T09:05:05;4.13;;;2.00;;
44564;SDS011;30275;51.822;-0.326;2023-02-28T09:07:31;2.90;;;2.15;;
44564;SDS011;30275;51.822;-0.326;2023-02-28T09:09:56;2.75;;;2.33;;
44564;SDS011;30275;51.822;-0.326;2023-02-28T09:12:26;3.95;;;1.92;;
44564;SDS011;30275;51.822;-0.326;2023-02-28T09:14:53;3.35;;;2.20;;
44564;SDS011;30275;51.822;-0.326;2023-02-28T09:17:19;3.28;;;2.28;;
44564;SDS011;30275;51.822;-0.326;2023-02-28T09:19:45;3.90;;;2.03;;
44564;SDS011;30275;51.822;-0.326;2023-02-28T09:22:13;5.63;;;1.73;;
44564;SDS011;30275;51.822;-0.326;2023-02-28T09:24:38;3.15;;;2.20;;
44564;SDS011;30275;51.822;-0.326;2023-02-28T09:27:04;3.53;;;1.92;;
44564;SDS011;30275;51.822;-0.326;2023-02-28T09:29:31;2.55;;;1.88;;
44564;SDS011;30275;51.822;-0.326;2023-02-28T09:31:58;4.13;;;2.25;;
44564;SDS011;30275;51.822;-0.326;2023-02-28T09:34:24;5.53;;;1.92;;
44564;SDS011;30275;51.822;-0.326;2023-02-28T09:36:50;3.60;;;2.15;;
44564;SDS011;30275;51.822;-0.326;2023-02-28T09:39:20;2.17;;;1.77;;
44564;SDS011;30275;51.822;-0.326;2023-02-28T09:41:47;3.10;;;1.85;;
44564;SDS011;30275;51.822;-0.326;2023-02-28T09:44:24;2.72;;;2.00;;
44564;SDS011;30275;51.822;-0.326;2023-02-28T09:47:01;4.20;;;1.95;;
44564;SDS011;30275;51.822;-0.326;2023-02-28T09:49:46;4.15;;;2.47;;
44564;SDS011;30275;51.822;-0.326;2023-02-28T09:52:19;3.72;;;2.22;;
44564;SDS011;30275;51.822;-0.326;2023-02-28T09:54:53;4.97;;;2.40;;
44564;SDS011;30275;51.822;-0.326;2023-02-28T09:57:32;3.53;;;2.55;;
44564;SDS011;30275;51.822;-0.326;2023-02-28T10:00:21;3.95;;;3.08;;
44564;SDS011;30275;51.822;-0.326;2023-02-28T10:05:20;4.63;;;3.17;;
44564;SDS011;30275;51.822;-0.326;2023-02-28T10:10:46;6.30;;;4.10;;
44564;SDS011;30275;51.822;-0.326;2023-02-28T10:16:16;5.47;;;4.18;;
44564;SDS011;30275;51.822;-0.326;2023-02-28T10:18:52;6.13;;;4.22;;
44564;SDS011;30275;51.822;-0.326;2023-02-28T10:21:26;8.63;;;5.60;;
44564;SDS011;30275;51.822;-0.326;2023-02-28T10:24:01;8.75;;;5.88;;
44564;SDS011;30275;51.822;-0.326;2023-02-28T10:26:29;8.77;;;5.38;;
44564;SDS011;30275;51.822;-0.326;2023-02-28T10:28:57;12.38;;;7.00;;
44564;SDS011;30275;51.822;-0.326;2023-02-28T10:31:23;8.27;;;5.07;;
44564;SDS011;30275;51.822;-0.326;2023-02-28T10:33:48;8.63;;;4.78;;
44564;SDS011;30275;51.822;-0.326;2023-02-28T10:36:16;8.57;;;4.43;;
44564;SDS011;30275;51.822;-0.326;2023-02-28T10:38:44;7.85;;;4.13;;
44564;SDS011;30275;51.822;-0.326;2023-02-28T10:41:17;5.53;;;3.08;;
44564;SDS011;30275;51.822;-0.326;2023-02-28T10:44:12;3.95;;;2.88;;
44564;SDS011;30275;51.822;-0.326;2023-02-28T10:46:48;5.43;;;3.10;;
44564;SDS011;30275;51.822;-0.326;2023-02-28T10:49:27;7.50;;;3.40;;
44564;SDS011;30275;51.822;-0.326;2023-02-28T10:51:56;5.63;;;3.65;;
44564;SDS011;30275;51.822;-0.326;2023-02-28T10:54:29;5.20;;;3.60;;
44564;SDS011;30275;51.822;-0.326;2023-02-28T10:59:45;6.35;;;3.75;;
44564;SDS011;30275;51.822;-0.326;2023-02-28T11:04:59;6.65;;;3.85;;
44564;SDS011;30275;51.822;-0.326;2023-02-28T11:07:25;6.28;;;3.90;;
44564;SDS011;30275;51.822;-0.326;2023-02-28T11:09:53;6.60;;;3.80;;
44564;SDS011;30275;51.822;-0.326;2023-02-28T11:12:38;5.30;;;3.47;;
44564;SDS011;30275;51.822;-0.326;2023-02-28T11:15:07;5.72;;;3.33;;
44564;SDS011;30275;51.822;-0.326;2023-02-28T11:17:59;6.18;;;3.15;;
44564;SDS011;30275;51.822;-0.326;2023-02-28T11:20:28;5.50;;;3.25;;
44564;SDS011;30275;51.822;-0.326;2023-02-28T11:22:57;4.00;;;2.47;;
44564;SDS011;30275;51.822;-0.326;2023-02-28T11:25:26;6.20;;;3.92;;
44564;SDS011;30275;51.822;-0.326;2023-02-28T11:27:56;6.28;;;3.50;;
44564;SDS011;30275;51.822;-0.326;2023-02-28T11:32:54;7.53;;;4.05;;
44564;SDS011;30275;51.822;-0.326;2023-02-28T11:35:28;6.88;;;4.43;;
44564;SDS011;30275;51.822;-0.326;2023-02-28T11:38:13;8.75;;;4.35;;
44564;SDS011;30275;51.822;-0.326;2023-02-28T11:43:50;7.47;;;4.10;;
44564;SDS011;30275;51.822;-0.326;2023-02-28T11:52:10;4.78;;;2.47;;
44564;SDS011;30275;51.822;-0.326;2023-02-28T11:55:17;4.57;;;2.75;;
44564;SDS011;30275;51.822;-0.326;2023-02-28T12:11:53;5.22;;;3.63;;
44564;SDS011;30275;51.822;-0.326;2023-02-28T12:14:27;6.32;;;3.30;;
44564;SDS011;30275;51.822;-0.326;2023-02-28T12:22:32;5.32;;;3.40;;
44564;SDS011;30275;51.822;-0.326;2023-02-28T12:27:32;5.50;;;4.05;;
44564;SDS011;30275;51.822;-0.326;2023-02-28T12:30:35;5.32;;;2.75;;
44564;SDS011;30275;51.822;-0.326;2023-02-28T12:35:56;5.50;;;2.90;;
44564;SDS011;30275;51.822;-0.326;2023-02-28T12:38:24;6.03;;;2.80;;
44564;SDS011;30275;51.822;-0.326;2023-02-28T12:43:47;6.35;;;3.70;;
44564;SDS011;30275;51.822;-0.326;2023-02-28T12:46:21;6.50;;;4.45;;
44564;SDS011;30275;51.822;-0.326;2023-02-28T12:48:54;6.55;;;4.22;;
44564;SDS011;30275;51.822;-0.326;2023-02-28T12:51:22;5.05;;;3.00;;
44564;SDS011;30275;51.822;-0.326;2023-02-28T12:53:56;5.85;;;3.65;;
44564;SDS011;30275;51.822;-0.326;2023-02-28T12:56:46;4.28;;;2.85;;
44564;SDS011;30275;51.822;-0.326;2023-02-28T13:08:08;2.78;;;1.80;;
44564;SDS011;30275;51.822;-0.326;2023-02-28T13:10:49;2.33;;;1.65;;
44564;SDS011;30275;51.822;-0.326;2023-02-28T13:13:23;2.22;;;1.60;;
44564;SDS011;30275;51.822;-0.326;2023-02-28T13:18:40;1.85;;;1.30;;
44564;SDS011;30275;51.822;-0.326;2023-02-28T13:21:10;1.90;;;1.10;;
44564;SDS011;30275;51.822;-0.326;2023-02-28T13:31:25;1.92;;;1.23;;
44564;SDS011;30275;51.822;-0.326;2023-02-28T13:38:55;1.80;;;1.20;;
44564;SDS011;30275;51.822;-0.326;2023-02-28T13:44:16;1.52;;;1.10;;
44564;SDS011;30275;51.822;-0.326;2023-02-28T13:51:51;1.48;;;1.30;;
44564;SDS011;30275;51.822;-0.326;2023-02-28T14:04:59;1.02;;;0.80;;
44564;SDS011;30275;51.822;-0.326;2023-02-28T14:07:28;1.10;;;1.00;;
44564;SDS011;30275;51.822;-0.326;2023-02-28T14:10:02;0.68;;;0.68;;
44564;SDS011;30275;51.822;-0.326;2023-02-28T14:17:57;1.27;;;0.90;;
44564;SDS011;30275;51.822;-0.326;2023-02-28T14:20:27;0.95;;;0.70;;
44564;SDS011;30275;51.822;-0.326;2023-02-28T14:31:13;1.48;;;0.68;;
44564;SDS011;30275;51.822;-0.326;2023-02-28T14:36:35;2.30;;;1.05;;
44564;SDS011;30275;51.822;-0.326;2023-02-28T14:39:07;1.27;;;0.88;;
44564;SDS011;30275;51.822;-0.326;2023-02-28T14:41:45;0.68;;;0.60;;
44564;SDS011;30275;51.822;-0.326;2023-02-28T14:44:22;1.50;;;0.70;;
44564;SDS011;30275;51.822;-0.326;2023-02-28T14:46:50;0.88;;;0.88;;
44564;SDS011;30275;51.822;-0.326;2023-02-28T14:49:27;1.58;;;0.82;;
44564;SDS011;30275;51.822;-0.326;2023-02-28T14:52:19;1.20;;;0.77;;
44564;SDS011;30275;51.822;-0.326;2023-02-28T14:54:53;1.55;;;0.70;;
44564;SDS011;30275;51.822;-0.326;2023-02-28T14:57:25;1.27;;;0.80;;
44564;SDS011;30275;51.822;-0.326;2023-02-28T14:59:58;0.52;;;0.43;;
44564;SDS011;30275;51.822;-0.326;2023-02-28T15:02:34;1.25;;;0.75;;
44564;SDS011;30275;51.822;-0.326;2023-02-28T15:05:22;2.13;;;0.80;;
44564;SDS011;30275;51.822;-0.326;2023-02-28T15:10:39;0.75;;;0.50;;
44564;SDS011;30275;51.822;-0.326;2023-02-28T15:13:09;0.98;;;0.40;;
44564;SDS011;30275;51.822;-0.326;2023-02-28T15:18:44;1.55;;;0.57;;
44564;SDS011;30275;51.822;-0.326;2023-02-28T15:21:08;2.35;;;0.80;;
44564;SDS011;30275;51.822;-0.326;2023-02-28T15:23:38;1.17;;;0.60;;
44564;SDS011;30275;51.822;-0.326;2023-02-28T15:26:07;0.80;;;0.80;;
44564;SDS011;30275;51.822;-0.326;2023-02-28T15:28:36;0.85;;;0.55;;
44564;SDS011;30275;51.822;-0.326;2023-02-28T15:31:03;0.55;;;0.50;;
44564;SDS011;30275;51.822;-0.326;2023-02-28T15:33:51;0.60;;;0.60;;
44564;SDS011;30275;51.822;-0.326;2023-02-28T15:36:21;3.05;;;0.75;;
44564;SDS011;30275;51.822;-0.326;2023-02-28T15:38:52;0.57;;;0.57;;
44564;SDS011;30275;51.822;-0.326;2023-02-28T15:41:26;0.60;;;0.60;;
44564;SDS011;30275;51.822;-0.326;2023-02-28T15:44:36;1.38;;;0.85;;
44564;SDS011;30275;51.822;-0.326;2023-02-28T15:47:26;0.50;;;0.50;;
44564;SDS011;30275;51.822;-0.326;2023-02-28T15:49:47;0.70;;;0.57;;
44564;SDS011;30275;51.822;-0.326;2023-02-28T15:52:15;0.50;;;0.50;;
44564;SDS011;30275;51.822;-0.326;2023-02-28T15:54:44;0.40;;;0.40;;
44564;SDS011;30275;51.822;-0.326;2023-02-28T15:57:13;0.68;;;0.68;;
44564;SDS011;30275;51.822;-0.326;2023-02-28T15:59:45;0.40;;;0.40;;
44564;SDS011;30275;51.822;-0.326;2023-02-28T16:02:17;1.10;;;0.50;;
44564;SDS011;30275;51.822;-0.326;2023-02-28T16:07:34;0.88;;;0.60;;
44564;SDS011;30275;51.822;-0.326;2023-02-28T16:10:04;1.65;;;0.60;;
44564;SDS011;30275;51.822;-0.326;2023-02-28T16:12:32;2.30;;;0.40;;
44564;SDS011;30275;51.822;-0.326;2023-02-28T16:15:00;2.95;;;0.55;;
44564;SDS011;30275;51.822;-0.326;2023-02-28T16:17:31;0.52;;;0.52;;
44564;SDS011;30275;51.822;-0.326;2023-02-28T16:19:59;1.40;;;0.60;;
44564;SDS011;30275;51.822;-0.326;2023-02-28T16:22:25;0.80;;;0.50;;
44564;SDS011;30275;51.822;-0.326;2023-02-28T16:24:51;0.73;;;0.50;;
44564;SDS011;30275;51.822;-0.326;2023-02-28T16:27:18;2.95;;;0.50;;
44564;SDS011;30275;51.822;-0.326;2023-02-28T16:29:46;0.60;;;0.55;;
44564;SDS011;30275;51.822;-0.326;2023-02-28T16:32:14;0.70;;;0.60;;
44564;SDS011;30275;51.822;-0.326;2023-02-28T16:34:40;1.77;;;0.45;;
44564;SDS011;30275;51.822;-0.326;2023-02-28T16:37:14;0.63;;;0.63;;
44564;SDS011;30275;51.822;-0.326;2023-02-28T16:39:42;0.65;;;0.60;;
44564;SDS011;30275;51.822;-0.326;2023-02-28T16:42:10;0.98;;;0.75;;
44564;SDS011;30275;51.822;-0.326;2023-02-28T16:44:41;1.63;;;0.70;;
44564;SDS011;30275;51.822;-0.326;2023-02-28T16:47:08;2.63;;;0.80;;
44564;SDS011;30275;51.822;-0.326;2023-02-28T16:49:35;0.70;;;0.70;;
44564;SDS011;30275;51.822;-0.326;2023-02-28T16:52:01;1.20;;;0.82;;
44564;SDS011;30275;51.822;-0.326;2023-02-28T16:54:27;2.13;;;0.90;;
44564;SDS011;30275;51.822;-0.326;2023-02-28T16:56:52;1.35;;;0.70;;
44564;SDS011;30275;51.822;-0.326;2023-02-28T16:59:19;1.55;;;0.68;;
44564;SDS011;30275;51.822;-0.326;2023-02-28T17:01:49;1.15;;;0.70;;
44564;SDS011;30275;51.822;-0.326;2023-02-28T17:04:15;0.57;;;0.55;;
44564;SDS011;30275;51.822;-0.326;2023-02-28T17:06:41;2.33;;;0.70;;
44564;SDS011;30275;51.822;-0.326;2023-02-28T17:09:14;0.85;;;0.80;;
44564;SDS011;30275;51.822;-0.326;2023-02-28T17:11:42;2.45;;;1.58;;
44564;SDS011;30275;51.822;-0.326;2023-02-28T17:14:07;0.73;;;0.73;;
44564;SDS011;30275;51.822;-0.326;2023-02-28T17:16:33;2.08;;;1.00;;
44564;SDS011;30275;51.822;-0.326;2023-02-28T17:19:02;1.33;;;0.60;;
44564;SDS011;30275;51.822;-0.326;2023-02-28T17:21:30;4.65;;;0.95;;